createdAt,value
2023-03-25T00:02:23.519Z,14.57
2023-03-25T00:04:54.324Z,14.48
2023-03-25T00:07:21.837Z,17.55
2023-03-25T00:09:48.825Z,14.32
2023-03-25T00:12:18.943Z,15.88
2023-03-25T00:14:54.691Z,14.82
2023-03-25T00:19:52.127Z,13.13
2023-03-25T00:22:19.261Z,13.30
2023-03-25T00:24:46.057Z,14.32
2023-03-25T00:27:14.384Z,15.25
2023-03-25T00:29:42.319Z,14.50
2023-03-25T00:32:09.322Z,15.50
2023-03-25T00:34:41.748Z,14.75
2023-03-25T00:37:09.689Z,18.40
2023-03-25T00:39:38.057Z,16.52
2023-03-25T00:42:05.410Z,15.00
2023-03-25T00:44:32.600Z,17.48
2023-03-25T00:46:59.309Z,17.27
2023-03-25T00:49:28.719Z,18.90
2023-03-25T00:51:58.693Z,15.70
2023-03-25T00:54:25.396Z,19.48
2023-03-25T00:56:53.370Z,14.65
2023-03-25T00:59:20.277Z,15.18
2023-03-25T01:01:46.976Z,19.13
2023-03-25T01:04:13.761Z,18.67
2023-03-25T01:06:51.898Z,15.60
2023-03-25T01:09:20.006Z,17.67
2023-03-25T01:11:47.596Z,16.10
2023-03-25T01:14:17.356Z,15.75
2023-03-25T01:16:44.480Z,17.58
2023-03-25T01:19:13.806Z,17.55
2023-03-25T01:21:40.823Z,14.73
2023-03-25T01:24:10.442Z,20.42
2023-03-25T01:26:37.622Z,16.85
2023-03-25T01:29:04.318Z,18.45
2023-03-25T01:31:31.012Z,15.70
2023-03-25T01:33:58.861Z,17.65
2023-03-25T01:36:29.748Z,22.80
2023-03-25T01:38:59.163Z,21.38
2023-03-25T01:41:35.677Z,17.17
2023-03-25T01:44:14.897Z,15.75
2023-03-25T01:46:45.552Z,15.45
2023-03-25T01:49:24.981Z,15.63
2023-03-25T01:51:56.712Z,18.02
2023-03-25T01:54:23.992Z,15.75
2023-03-25T01:56:52.352Z,15.13
2023-03-25T01:59:20.718Z,16.88
2023-03-25T02:01:47.457Z,12.63
2023-03-25T02:04:16.691Z,17.92
2023-03-25T02:06:48.450Z,17.13
2023-03-25T02:09:18.149Z,14.38
2023-03-25T02:11:45.057Z,15.82
2023-03-25T02:14:17.893Z,19.48
2023-03-25T02:17:03.450Z,18.80
2023-03-25T02:19:48.352Z,16.58
2023-03-25T02:22:51.899Z,17.13
2023-03-25T02:25:54.996Z,12.90
2023-03-25T02:28:42.631Z,13.93
2023-03-25T02:31:28.589Z,14.85
2023-03-25T02:34:24.254Z,14.82
2023-03-25T02:37:26.760Z,12.60
2023-03-25T02:40:16.722Z,16.80
2023-03-25T02:42:46.378Z,19.70
2023-03-25T02:45:23.829Z,14.75
2023-03-25T02:47:54.266Z,16.27
2023-03-25T02:50:28.966Z,13.80
2023-03-25T02:52:58.634Z,14.40
2023-03-25T02:55:25.863Z,15.30
2023-03-25T02:57:54.839Z,13.73
2023-03-25T03:00:27.506Z,13.00
2023-03-25T03:03:02.205Z,16.23
2023-03-25T03:05:41.481Z,13.40
2023-03-25T03:08:19.113Z,14.52
2023-03-25T03:10:52.033Z,13.95
2023-03-25T03:13:29.149Z,17.83
2023-03-25T03:16:07.829Z,15.50
2023-03-25T03:18:48.494Z,15.07
2023-03-25T03:21:16.786Z,19.92
2023-03-25T03:24:06.159Z,14.18
2023-03-25T03:26:44.564Z,18.48
2023-03-25T03:29:21.072Z,15.85
2023-03-25T03:32:05.578Z,17.17
2023-03-25T03:35:11.682Z,10.77
2023-03-25T03:37:42.229Z,16.08
2023-03-25T03:40:14.056Z,13.98
2023-03-25T03:42:45.283Z,16.15
2023-03-25T03:45:22.872Z,16.08
2023-03-25T03:47:53.212Z,11.55
2023-03-25T03:51:18.706Z,15.63
2023-03-25T03:53:51.212Z,16.58
2023-03-25T03:56:37.380Z,16.80
2023-03-25T03:59:11.006Z,17.58
2023-03-25T04:01:46.313Z,14.88
2023-03-25T04:06:47.197Z,14.70
2023-03-25T04:09:18.652Z,19.05
2023-03-25T04:11:59.018Z,17.33
2023-03-25T04:14:26.058Z,16.77
2023-03-25T04:16:54.623Z,16.77
2023-03-25T04:19:21.357Z,15.48
2023-03-25T04:21:48.833Z,18.50
2023-03-25T04:24:17.042Z,16.05
2023-03-25T04:26:43.990Z,14.80
2023-03-25T04:29:10.831Z,20.45
2023-03-25T04:31:37.856Z,18.73
2023-03-25T04:34:04.724Z,16.02
2023-03-25T04:36:38.046Z,14.77
2023-03-25T04:39:05.189Z,19.10
2023-03-25T04:41:33.748Z,16.85
2023-03-25T04:44:00.543Z,18.08
2023-03-25T04:46:27.336Z,19.90
2023-03-25T04:48:56.993Z,21.63
2023-03-25T04:51:23.907Z,18.40
2023-03-25T04:53:50.720Z,19.00
2023-03-25T04:56:18.470Z,18.33
2023-03-25T04:58:45.922Z,15.13
2023-03-25T05:01:32.958Z,20.15
2023-03-25T05:04:05.875Z,16.33
2023-03-25T05:06:40.101Z,14.75
2023-03-25T05:09:10.452Z,21.05
2023-03-25T05:11:39.722Z,14.40
2023-03-25T05:14:07.040Z,19.23
2023-03-25T05:16:34.085Z,20.13
2023-03-25T05:19:00.774Z,14.10
2023-03-25T05:21:27.437Z,18.85
2023-03-25T05:23:54.189Z,15.98
2023-03-25T05:26:21.028Z,17.05
2023-03-25T05:28:51.525Z,16.33
2023-03-25T05:31:18.849Z,17.05
2023-03-25T05:33:45.577Z,22.40
2023-03-25T05:36:18.119Z,21.77
2023-03-25T05:38:44.842Z,18.35
2023-03-25T05:41:18.169Z,17.25
2023-03-25T05:43:50.871Z,18.15
2023-03-25T05:46:19.076Z,16.30
2023-03-25T05:48:46.001Z,17.95
2023-03-25T05:51:21.840Z,17.35
2023-03-25T05:53:51.957Z,20.05
2023-03-25T05:56:20.849Z,24.20
2023-03-25T05:58:49.296Z,18.17
2023-03-25T06:01:31.120Z,19.52
2023-03-25T06:04:01.768Z,18.80
2023-03-25T06:06:29.431Z,19.25
2023-03-25T06:08:56.148Z,15.15
2023-03-25T06:11:22.808Z,15.40
2023-03-25T06:13:52.333Z,17.70
2023-03-25T06:16:21.975Z,18.50
2023-03-25T06:18:56.579Z,15.95
2023-03-25T06:21:24.054Z,24.63
2023-03-25T06:23:51.135Z,17.10
2023-03-25T06:26:18.703Z,15.65
2023-03-25T06:28:46.171Z,20.15
2023-03-25T06:31:22.707Z,18.15
2023-03-25T06:33:50.956Z,17.10
2023-03-25T06:36:18.875Z,25.48
2023-03-25T06:38:50.445Z,25.80
2023-03-25T06:41:21.392Z,20.48
2023-03-25T06:43:49.043Z,25.20
2023-03-25T06:46:16.439Z,18.65
2023-03-25T06:48:43.346Z,19.55
2023-03-25T06:51:10.201Z,22.98
2023-03-25T06:53:36.941Z,20.30
2023-03-25T06:56:03.708Z,14.93
2023-03-25T06:58:35.206Z,18.25
2023-03-25T07:01:07.269Z,19.58
2023-03-25T07:03:36.491Z,21.30
2023-03-25T07:06:04.674Z,18.63
2023-03-25T07:08:31.677Z,19.08
2023-03-25T07:11:02.820Z,23.23
2023-03-25T07:13:31.205Z,20.70
2023-03-25T07:15:59.251Z,17.75
2023-03-25T07:18:26.197Z,19.35
2023-03-25T07:20:53.213Z,16.08
2023-03-25T07:23:19.949Z,16.20
2023-03-25T07:25:46.688Z,16.67
2023-03-25T07:28:13.442Z,15.95
2023-03-25T07:30:40.342Z,20.50
2023-03-25T07:33:07.023Z,21.52
2023-03-25T07:35:33.778Z,28.33
2023-03-25T07:38:00.512Z,22.55
2023-03-25T07:40:27.210Z,22.50
2023-03-25T07:42:53.887Z,28.73
2023-03-25T07:45:20.693Z,29.80
2023-03-25T07:47:50.477Z,23.63
2023-03-25T07:50:18.168Z,44.08
2023-03-25T07:52:45.024Z,21.02
2023-03-25T07:55:11.949Z,25.75
2023-03-25T07:57:40.906Z,29.38
2023-03-25T08:00:08.596Z,33.63
2023-03-25T08:02:35.428Z,45.80
2023-03-25T08:05:04.793Z,49.13
2023-03-25T08:07:32.776Z,32.20
2023-03-25T08:09:59.419Z,64.72
2023-03-25T08:12:26.150Z,65.75
2023-03-25T08:14:52.865Z,30.80
2023-03-25T08:17:19.629Z,42.83
2023-03-25T08:19:46.289Z,110.75
2023-03-25T08:22:12.922Z,47.45
2023-03-25T08:24:39.709Z,45.20
2023-03-25T08:27:15.047Z,84.50
2023-03-25T08:29:43.351Z,59.17
2023-03-25T08:32:10.237Z,30.35
2023-03-25T08:34:39.947Z,72.15
2023-03-25T08:37:08.083Z,31.73
2023-03-25T08:39:39.486Z,27.77
2023-03-25T08:42:07.562Z,76.35
2023-03-25T08:44:34.618Z,30.63
2023-03-25T08:47:01.422Z,28.95
2023-03-25T08:49:28.147Z,37.85
2023-03-25T08:51:54.867Z,56.63
2023-03-25T08:54:21.608Z,75.78
2023-03-25T08:56:48.573Z,41.63
2023-03-25T08:59:15.628Z,42.20
2023-03-25T09:01:43.738Z,34.28
2023-03-25T09:04:11.374Z,29.45
2023-03-25T09:06:47.885Z,24.00
2023-03-25T09:09:16.544Z,29.23
2023-03-25T09:11:43.435Z,53.47
2023-03-25T09:14:10.113Z,27.90
2023-03-25T09:16:36.820Z,33.05
2023-03-25T09:19:04.012Z,22.42
2023-03-25T09:21:30.874Z,24.08
2023-03-25T09:23:57.500Z,21.88
2023-03-25T09:26:26.219Z,24.83
2023-03-25T09:28:55.545Z,25.83
2023-03-25T09:33:49.579Z,22.88
2023-03-25T09:36:16.289Z,20.13
2023-03-25T09:38:42.951Z,34.55
2023-03-25T09:41:46.361Z,42.50
2023-03-25T09:44:22.497Z,28.52
2023-03-25T09:46:49.641Z,26.52
2023-03-25T09:49:37.583Z,26.65
2023-03-25T09:52:05.359Z,31.65
2023-03-25T09:54:34.264Z,37.83
2023-03-25T09:57:06.524Z,24.13
2023-03-25T09:59:36.386Z,27.92
2023-03-25T10:02:12.353Z,37.08
2023-03-25T10:05:09.475Z,44.35
2023-03-25T10:07:42.182Z,29.45
2023-03-25T10:10:18.029Z,30.02
2023-03-25T10:12:52.401Z,36.58
2023-03-25T10:15:49.176Z,35.15
2023-03-25T10:18:18.882Z,29.10
2023-03-25T10:21:15.945Z,30.23
2023-03-25T10:24:21.028Z,28.75
2023-03-25T10:26:55.018Z,29.77
2023-03-25T10:29:28.161Z,46.38
2023-03-25T10:31:57.688Z,32.78
2023-03-25T10:34:34.906Z,39.10
2023-03-25T10:37:05.140Z,39.38
2023-03-25T10:39:34.164Z,28.00
2023-03-25T10:42:04.916Z,30.73
2023-03-25T10:44:31.590Z,31.20
2023-03-25T10:47:03.767Z,35.05
2023-03-25T10:49:32.776Z,36.22
2023-03-25T10:52:00.181Z,49.75
2023-03-25T10:54:33.650Z,34.08
2023-03-25T10:57:02.940Z,38.47
2023-03-25T11:01:58.335Z,34.20
2023-03-25T11:04:33.986Z,50.92
2023-03-25T11:07:00.817Z,37.08
2023-03-25T11:09:30.742Z,41.70
2023-03-25T11:12:01.401Z,48.85
2023-03-25T11:14:29.726Z,60.38
2023-03-25T11:17:00.184Z,65.40
2023-03-25T11:19:29.144Z,43.33
2023-03-25T11:21:59.435Z,36.55
2023-03-25T11:24:31.858Z,38.88
2023-03-25T11:26:58.750Z,41.67
2023-03-25T11:29:26.568Z,97.90
2023-03-25T11:32:07.367Z,41.55
2023-03-25T11:34:42.288Z,51.08
2023-03-25T11:37:19.979Z,44.42
2023-03-25T11:39:55.138Z,64.47
2023-03-25T11:42:22.341Z,117.50
2023-03-25T11:44:53.632Z,41.45
2023-03-25T11:47:26.565Z,53.53
2023-03-25T11:49:53.921Z,84.68
2023-03-25T11:52:25.803Z,71.32
2023-03-25T11:54:56.202Z,73.75
2023-03-25T11:57:26.616Z,38.45
2023-03-25T12:00:12.277Z,78.18
2023-03-25T12:02:40.701Z,47.50
2023-03-25T12:05:14.950Z,91.13
2023-03-25T12:07:48.743Z,50.25
2023-03-25T12:10:21.015Z,173.27
2023-03-25T12:13:05.533Z,117.18
2023-03-25T12:16:08.132Z,130.52
2023-03-25T12:18:53.067Z,45.10
2023-03-25T12:21:38.135Z,91.32
2023-03-25T12:24:39.821Z,52.95
2023-03-25T12:27:28.868Z,64.50
2023-03-25T12:29:58.356Z,52.30
2023-03-25T12:32:57.088Z,69.43
2023-03-25T12:35:47.910Z,45.00
2023-03-25T12:38:37.565Z,43.47
2023-03-25T12:41:28.784Z,44.40
2023-03-25T12:44:08.848Z,47.67
2023-03-25T12:46:44.294Z,55.00
2023-03-25T12:49:28.990Z,41.88
2023-03-25T12:52:10.697Z,47.47
2023-03-25T12:58:11.132Z,58.20
2023-03-25T13:00:56.502Z,43.60
2023-03-25T13:03:48.001Z,65.97
2023-03-25T13:06:40.721Z,60.67
2023-03-25T13:09:16.305Z,42.75
2023-03-25T13:11:53.214Z,52.17
2023-03-25T13:14:31.144Z,49.92
2023-03-25T13:17:00.278Z,42.15
2023-03-25T13:19:28.770Z,42.92
2023-03-25T13:22:09.261Z,45.33
2023-03-25T13:24:43.193Z,46.83
2023-03-25T13:27:13.680Z,48.00
2023-03-25T13:29:44.314Z,61.45
2023-03-25T13:32:48.205Z,54.78
2023-03-25T13:35:31.408Z,43.58
2023-03-25T13:38:01.598Z,42.05
2023-03-25T13:40:35.622Z,57.65
2023-03-25T13:43:20.407Z,84.45
2023-03-25T13:46:09.220Z,83.85
2023-03-25T13:48:44.647Z,126.55
2023-03-25T13:51:11.598Z,46.00
2023-03-25T13:53:54.295Z,54.72
2023-03-25T13:57:01.430Z,64.43
2023-03-25T14:00:06.196Z,134.57
2023-03-25T14:03:03.363Z,60.00
2023-03-25T14:05:59.204Z,97.82
2023-03-25T14:08:57.968Z,418.50
2023-03-25T14:11:24.575Z,114.68
2023-03-25T14:14:08.792Z,111.40
2023-03-25T14:16:38.613Z,94.03
2023-03-25T14:19:12.466Z,233.77
2023-03-25T14:21:39.622Z,264.98
2023-03-25T14:24:14.308Z,79.97
2023-03-25T14:26:53.321Z,170.32
2023-03-25T14:29:32.465Z,121.25
2023-03-25T14:32:19.351Z,103.75
2023-03-25T14:34:49.444Z,84.32
2023-03-25T14:37:28.846Z,66.85
2023-03-25T14:40:00.812Z,63.45
2023-03-25T14:43:00.004Z,157.15
2023-03-25T14:45:32.584Z,67.63
2023-03-25T14:47:59.412Z,61.22
2023-03-25T14:50:27.724Z,62.75
2023-03-25T14:53:04.701Z,61.60
2023-03-25T14:55:34.285Z,54.03
2023-03-25T14:58:03.410Z,56.83
2023-03-25T15:00:34.226Z,43.53
2023-03-25T15:03:08.907Z,58.75
2023-03-25T15:05:36.201Z,53.50
2023-03-25T15:08:06.717Z,46.08
2023-03-25T15:10:46.045Z,43.35
2023-03-25T15:13:19.050Z,47.67
2023-03-25T15:15:45.742Z,45.38
2023-03-25T15:18:13.470Z,37.05
2023-03-25T15:20:40.253Z,37.72
2023-03-25T15:23:18.887Z,39.13
2023-03-25T15:25:47.056Z,33.17
2023-03-25T15:28:28.394Z,41.80
2023-03-25T15:31:11.200Z,37.70
2023-03-25T15:33:43.828Z,32.42
2023-03-25T15:36:43.579Z,35.15
2023-03-25T15:39:16.091Z,44.80
2023-03-25T15:42:07.177Z,34.33
2023-03-25T15:45:11.396Z,33.78
2023-03-25T15:47:59.302Z,31.20
2023-03-25T15:53:13.069Z,34.15
2023-03-25T15:55:48.748Z,35.03
2023-03-25T15:58:26.436Z,30.13
2023-03-25T16:00:57.213Z,33.47
2023-03-25T16:03:27.247Z,29.40
2023-03-25T16:06:00.644Z,31.30
2023-03-25T16:08:32.177Z,34.22
2023-03-25T16:11:16.428Z,42.28
2023-03-25T16:13:43.597Z,41.92
2023-03-25T16:16:11.903Z,38.33
2023-03-25T16:18:41.595Z,37.30
2023-03-25T16:21:08.628Z,45.75
2023-03-25T16:23:36.956Z,43.35
2023-03-25T16:26:04.779Z,44.08
2023-03-25T16:28:40.203Z,41.20
2023-03-25T16:31:42.979Z,42.50
2023-03-25T16:34:15.411Z,39.80
2023-03-25T16:36:44.421Z,37.33
2023-03-25T16:39:15.604Z,36.60
2023-03-25T16:42:32.910Z,40.97
2023-03-25T16:44:59.761Z,32.92
2023-03-25T16:47:26.865Z,33.53
2023-03-25T16:49:55.612Z,39.33
2023-03-25T16:52:26.572Z,25.90
2023-03-25T16:54:53.144Z,36.03
2023-03-25T16:57:33.432Z,50.58
2023-03-25T17:00:14.371Z,64.00
2023-03-25T17:02:41.854Z,151.55
2023-03-25T17:05:16.388Z,289.38
2023-03-25T17:07:43.943Z,73.95
2023-03-25T17:10:40.036Z,140.50
2023-03-25T17:13:10.815Z,180.82
2023-03-25T17:15:38.084Z,183.10
2023-03-25T17:18:10.057Z,114.38
2023-03-25T17:20:42.438Z,50.65
2023-03-25T17:23:22.546Z,45.65
2023-03-25T17:26:00.962Z,37.15
2023-03-25T17:28:39.992Z,41.50
2023-03-25T17:31:32.482Z,50.13
2023-03-25T17:34:08.170Z,87.68
2023-03-25T17:36:36.774Z,45.80
2023-03-25T17:39:06.003Z,42.92
2023-03-25T17:41:39.444Z,40.67
2023-03-25T17:44:06.583Z,94.55
2023-03-25T17:46:35.260Z,132.15
2023-03-25T17:49:02.193Z,134.80
2023-03-25T17:51:30.834Z,78.93
2023-03-25T17:53:57.925Z,131.15
2023-03-25T17:56:26.686Z,131.07
2023-03-25T17:59:05.623Z,209.43
2023-03-25T18:01:32.709Z,65.82
2023-03-25T18:03:59.445Z,59.17
2023-03-25T18:06:26.152Z,36.70
2023-03-25T18:08:53.092Z,76.00
2023-03-25T18:11:20.369Z,49.03
2023-03-25T18:13:48.258Z,70.60
2023-03-25T18:16:16.618Z,130.20
2023-03-25T18:18:43.791Z,254.85
2023-03-25T18:21:15.767Z,132.48
2023-03-25T18:23:47.725Z,83.65
2023-03-25T18:26:17.396Z,115.20
2023-03-25T18:28:47.426Z,73.88
2023-03-25T18:31:17.403Z,109.50
2023-03-25T18:33:46.389Z,30.73
2023-03-25T18:36:13.386Z,37.45
2023-03-25T18:38:40.242Z,42.05
2023-03-25T18:41:08.236Z,48.13
2023-03-25T18:43:34.900Z,110.45
2023-03-25T18:46:01.633Z,51.47
2023-03-25T18:48:28.341Z,58.92
2023-03-25T18:50:57.288Z,95.78
2023-03-25T18:53:26.725Z,151.05
2023-03-25T18:55:55.937Z,48.33
2023-03-25T18:58:27.108Z,53.97
2023-03-25T19:00:54.722Z,30.20
2023-03-25T19:03:38.658Z,79.47
2023-03-25T19:06:11.804Z,69.57
2023-03-25T19:08:39.503Z,46.88
2023-03-25T19:11:19.253Z,146.75
2023-03-25T19:13:47.494Z,75.18
2023-03-25T19:16:14.207Z,141.23
2023-03-25T19:18:40.923Z,136.55
2023-03-25T19:21:07.671Z,60.55
2023-03-25T19:23:35.475Z,236.40
2023-03-25T19:26:02.135Z,36.78
2023-03-25T19:28:29.193Z,109.03
2023-03-25T19:30:59.927Z,173.18
2023-03-25T19:33:26.999Z,95.35
2023-03-25T19:35:55.021Z,235.32
2023-03-25T19:38:25.616Z,263.50
2023-03-25T19:41:02.363Z,52.80
2023-03-25T19:43:29.468Z,158.20
2023-03-25T19:45:56.904Z,74.57
2023-03-25T19:48:23.584Z,127.32
2023-03-25T19:50:53.610Z,42.80
2023-03-25T19:53:20.844Z,41.35
2023-03-25T19:55:47.548Z,37.72
2023-03-25T19:58:14.269Z,37.17
2023-03-25T20:00:42.142Z,44.70
2023-03-25T20:03:08.887Z,89.47
2023-03-25T20:05:36.937Z,109.40
2023-03-25T20:08:04.352Z,54.88
2023-03-25T20:10:31.662Z,48.20
2023-03-25T20:13:00.134Z,42.28
2023-03-25T20:15:27.243Z,56.90
2023-03-25T20:17:55.578Z,46.90
2023-03-25T20:20:22.854Z,45.90
2023-03-25T20:22:49.544Z,44.67
2023-03-25T20:25:16.846Z,45.70
2023-03-25T20:27:43.916Z,45.83
2023-03-25T20:30:14.246Z,51.10
2023-03-25T20:32:42.666Z,43.47
2023-03-25T20:35:12.986Z,45.17
2023-03-25T20:37:40.756Z,47.83
2023-03-25T20:40:11.646Z,48.53
2023-03-25T20:42:43.030Z,47.60
2023-03-25T20:45:12.209Z,49.13
2023-03-25T20:47:39.017Z,48.75
2023-03-25T20:50:07.029Z,49.22
2023-03-25T20:52:35.941Z,45.72
2023-03-25T20:55:02.728Z,51.67
2023-03-25T20:57:29.442Z,52.83
2023-03-25T20:59:56.872Z,52.55
2023-03-25T21:02:24.555Z,50.03
2023-03-25T21:04:53.478Z,51.50
2023-03-25T21:07:22.447Z,52.83
2023-03-25T21:09:49.656Z,60.63
2023-03-25T21:12:16.571Z,61.33
2023-03-25T21:14:43.522Z,57.58
2023-03-25T21:17:10.529Z,59.08
2023-03-25T21:19:37.280Z,58.72
2023-03-25T21:22:04.389Z,56.28
2023-03-25T21:24:33.894Z,54.10
2023-03-25T21:27:00.775Z,65.28
2023-03-25T21:29:27.576Z,56.97
2023-03-25T21:31:54.733Z,57.38
2023-03-25T21:34:22.106Z,58.55
2023-03-25T21:36:49.219Z,64.95
2023-03-25T21:39:16.075Z,67.32
2023-03-25T21:41:42.949Z,60.60
2023-03-25T21:44:10.230Z,69.85
2023-03-25T21:46:37.881Z,57.50
2023-03-25T21:49:05.003Z,60.67
2023-03-25T21:51:32.600Z,68.00
2023-03-25T21:54:00.522Z,66.30
2023-03-25T21:56:30.993Z,72.28
2023-03-25T21:58:58.288Z,84.32
2023-03-25T22:01:28.793Z,69.38
2023-03-25T22:03:57.678Z,74.22
2023-03-25T22:06:30.382Z,74.57
2023-03-25T22:08:57.829Z,73.32
2023-03-25T22:11:29.342Z,80.03
2023-03-25T22:13:56.573Z,78.43
2023-03-25T22:16:23.814Z,88.28
2023-03-25T22:18:50.996Z,81.50
2023-03-25T22:21:20.951Z,79.22
2023-03-25T22:23:48.836Z,81.50
2023-03-25T22:26:16.834Z,71.53
2023-03-25T22:28:44.042Z,66.53
2023-03-25T22:31:17.077Z,60.83
2023-03-25T22:33:44.619Z,81.07
2023-03-25T22:36:14.184Z,74.70
2023-03-25T22:38:43.649Z,72.95
2023-03-25T22:43:37.140Z,74.85
2023-03-25T22:46:05.531Z,78.80
2023-03-25T22:48:32.692Z,68.03
2023-03-25T22:50:59.638Z,70.20
2023-03-25T22:53:26.899Z,74.22
2023-03-25T22:55:56.198Z,71.78
2023-03-25T22:58:25.018Z,78.95
2023-03-25T23:00:52.642Z,89.18
2023-03-25T23:03:19.647Z,84.57
2023-03-25T23:06:03.395Z,79.47
2023-03-25T23:08:35.214Z,71.93
2023-03-25T23:11:07.653Z,81.05
2023-03-25T23:13:35.633Z,71.28
2023-03-25T23:16:08.997Z,87.28
2023-03-25T23:18:39.695Z,76.57
2023-03-25T23:21:07.295Z,91.32
2023-03-25T23:23:34.619Z,80.43
2023-03-25T23:26:05.423Z,84.35
2023-03-25T23:28:36.313Z,81.45
2023-03-25T23:31:08.655Z,89.93
2023-03-25T23:33:35.537Z,91.25
2023-03-25T23:36:02.972Z,92.65
2023-03-25T23:38:29.800Z,88.38
2023-03-25T23:41:16.914Z,88.63
2023-03-25T23:43:44.433Z,87.35
2023-03-25T23:46:12.771Z,93.60
2023-03-25T23:48:42.896Z,99.32
2023-03-25T23:51:11.937Z,94.35
2023-03-25T23:53:40.099Z,99.38
2023-03-25T23:56:07.507Z,96.90
2023-03-25T23:58:34.534Z,98.15
